sensor_id;sensor_type;location;lat;lon;timestamp;temperature;humidity
47382;DHT22;33128;51.580;5.170;2023-05-14T00:01:51;14.10;99.90
47382;DHT22;33128;51.580;5.170;2023-05-14T00:04:16;14.20;99.90
47382;DHT22;33128;51.580;5.170;2023-05-14T00:06:44;14.10;99.90
47382;DHT22;33128;51.580;5.170;2023-05-14T00:09:10;14.10;99.90
47382;DHT22;33128;51.580;5.170;2023-05-14T00:11:35;13.90;99.90
47382;DHT22;33128;51.580;5.170;2023-05-14T00:14:01;13.90;99.90
47382;DHT22;33128;51.580;5.170;2023-05-14T00:16:26;13.80;99.90
47382;DHT22;33128;51.580;5.170;2023-05-14T00:18:52;13.90;99.90
47382;DHT22;33128;51.580;5.170;2023-05-14T00:21:17;13.80;99.90
47382;DHT22;33128;51.580;5.170;2023-05-14T00:23:43;13.80;99.90
47382;DHT22;33128;51.580;5.170;2023-05-14T00:26:08;13.70;99.90
47382;DHT22;33128;51.580;5.170;2023-05-14T00:28:34;13.90;99.90
47382;DHT22;33128;51.580;5.170;2023-05-14T00:30:59;13.60;99.90
47382;DHT22;33128;51.580;5.170;2023-05-14T00:33:25;13.60;99.90
47382;DHT22;33128;51.580;5.170;2023-05-14T00:35:50;13.50;99.90
47382;DHT22;33128;51.580;5.170;2023-05-14T00:38:16;13.50;99.90
47382;DHT22;33128;51.580;5.170;2023-05-14T00:40:44;13.60;99.90
47382;DHT22;33128;51.580;5.170;2023-05-14T00:43:14;13.60;99.90
47382;DHT22;33128;51.580;5.170;2023-05-14T00:45:40;13.50;99.90
47382;DHT22;33128;51.580;5.170;2023-05-14T00:48:06;13.40;99.90
47382;DHT22;33128;51.580;5.170;2023-05-14T00:50:31;13.30;99.90
47382;DHT22;33128;51.580;5.170;2023-05-14T00:52:58;13.40;99.90
47382;DHT22;33128;51.580;5.170;2023-05-14T00:55:24;13.30;99.90
47382;DHT22;33128;51.580;5.170;2023-05-14T00:57:50;13.30;99.90
47382;DHT22;33128;51.580;5.170;2023-05-14T01:00:17;13.50;99.90
47382;DHT22;33128;51.580;5.170;2023-05-14T01:02:43;13.40;99.90
47382;DHT22;33128;51.580;5.170;2023-05-14T01:05:08;13.30;99.90
47382;DHT22;33128;51.580;5.170;2023-05-14T01:10:20;13.20;99.90
47382;DHT22;33128;51.580;5.170;2023-05-14T01:12:51;13.10;99.90
47382;DHT22;33128;51.580;5.170;2023-05-14T01:15:18;13.20;99.90
47382;DHT22;33128;51.580;5.170;2023-05-14T01:17:45;13.30;99.90
47382;DHT22;33128;51.580;5.170;2023-05-14T01:20:13;13.30;99.90
47382;DHT22;33128;51.580;5.170;2023-05-14T01:22:38;13.00;99.90
47382;DHT22;33128;51.580;5.170;2023-05-14T01:25:04;12.90;99.90
47382;DHT22;33128;51.580;5.170;2023-05-14T01:27:34;13.00;99.90
47382;DHT22;33128;51.580;5.170;2023-05-14T01:32:50;12.90;99.90
47382;DHT22;33128;51.580;5.170;2023-05-14T01:35:16;12.90;99.90
47382;DHT22;33128;51.580;5.170;2023-05-14T01:37:42;12.90;99.90
47382;DHT22;33128;51.580;5.170;2023-05-14T01:40:08;12.90;99.90
47382;DHT22;33128;51.580;5.170;2023-05-14T01:42:35;12.80;99.90
47382;DHT22;33128;51.580;5.170;2023-05-14T01:45:01;12.80;99.90
47382;DHT22;33128;51.580;5.170;2023-05-14T01:47:27;12.90;99.90
47382;DHT22;33128;51.580;5.170;2023-05-14T01:49:52;13.00;99.90
47382;DHT22;33128;51.580;5.170;2023-05-14T01:52:17;12.70;99.90
47382;DHT22;33128;51.580;5.170;2023-05-14T01:54:48;12.50;99.90
47382;DHT22;33128;51.580;5.170;2023-05-14T01:57:13;12.50;99.90
47382;DHT22;33128;51.580;5.170;2023-05-14T01:59:39;12.40;99.90
47382;DHT22;33128;51.580;5.170;2023-05-14T02:02:04;12.70;99.90
47382;DHT22;33128;51.580;5.170;2023-05-14T02:04:30;12.70;99.90
47382;DHT22;33128;51.580;5.170;2023-05-14T02:06:55;12.70;99.90
47382;DHT22;33128;51.580;5.170;2023-05-14T02:09:21;12.60;99.90
47382;DHT22;33128;51.580;5.170;2023-05-14T02:11:46;12.50;99.90
47382;DHT22;33128;51.580;5.170;2023-05-14T02:14:12;12.70;99.90
47382;DHT22;33128;51.580;5.170;2023-05-14T02:16:39;12.50;99.90
47382;DHT22;33128;51.580;5.170;2023-05-14T02:19:05;12.60;99.90
47382;DHT22;33128;51.580;5.170;2023-05-14T02:21:30;12.50;99.90
47382;DHT22;33128;51.580;5.170;2023-05-14T02:23:56;12.50;99.90
47382;DHT22;33128;51.580;5.170;2023-05-14T02:26:22;12.50;99.90
47382;DHT22;33128;51.580;5.170;2023-05-14T02:28:47;12.40;99.90
47382;DHT22;33128;51.580;5.170;2023-05-14T02:31:13;12.40;99.90
47382;DHT22;33128;51.580;5.170;2023-05-14T02:33:39;12.50;99.90
47382;DHT22;33128;51.580;5.170;2023-05-14T02:36:04;12.50;99.90
47382;DHT22;33128;51.580;5.170;2023-05-14T02:38:30;12.60;99.90
47382;DHT22;33128;51.580;5.170;2023-05-14T02:40:56;12.60;99.90
47382;DHT22;33128;51.580;5.170;2023-05-14T02:43:21;12.50;99.90
47382;DHT22;33128;51.580;5.170;2023-05-14T02:45:47;12.40;99.90
47382;DHT22;33128;51.580;5.170;2023-05-14T02:48:12;12.40;99.90
47382;DHT22;33128;51.580;5.170;2023-05-14T02:50:38;12.40;99.90
47382;DHT22;33128;51.580;5.170;2023-05-14T02:53:05;12.50;99.90
47382;DHT22;33128;51.580;5.170;2023-05-14T02:55:31;12.40;99.90
47382;DHT22;33128;51.580;5.170;2023-05-14T02:57:56;12.30;99.90
47382;DHT22;33128;51.580;5.170;2023-05-14T03:00:22;12.30;99.90
47382;DHT22;33128;51.580;5.170;2023-05-14T03:02:50;12.20;99.90
47382;DHT22;33128;51.580;5.170;2023-05-14T03:05:16;12.20;99.90
47382;DHT22;33128;51.580;5.170;2023-05-14T03:07:42;12.10;99.90
47382;DHT22;33128;51.580;5.170;2023-05-14T03:10:07;12.00;99.90
47382;DHT22;33128;51.580;5.170;2023-05-14T03:12:33;12.00;99.90
47382;DHT22;33128;51.580;5.170;2023-05-14T03:14:58;11.90;99.90
47382;DHT22;33128;51.580;5.170;2023-05-14T03:17:24;11.90;99.90
47382;DHT22;33128;51.580;5.170;2023-05-14T03:19:49;11.90;99.90
47382;DHT22;33128;51.580;5.170;2023-05-14T03:22:15;11.90;99.90
47382;DHT22;33128;51.580;5.170;2023-05-14T03:24:41;11.80;99.90
47382;DHT22;33128;51.580;5.170;2023-05-14T03:27:06;11.40;99.90
47382;DHT22;33128;51.580;5.170;2023-05-14T03:29:32;11.80;99.90
47382;DHT22;33128;51.580;5.170;2023-05-14T03:31:57;11.70;99.90
47382;DHT22;33128;51.580;5.170;2023-05-14T03:34:23;11.60;99.90
47382;DHT22;33128;51.580;5.170;2023-05-14T03:36:49;11.80;99.90
47382;DHT22;33128;51.580;5.170;2023-05-14T03:39:15;11.50;99.90
47382;DHT22;33128;51.580;5.170;2023-05-14T03:41:46;11.60;99.90
47382;DHT22;33128;51.580;5.170;2023-05-14T03:44:12;11.60;99.90
47382;DHT22;33128;51.580;5.170;2023-05-14T03:46:40;11.60;99.90
47382;DHT22;33128;51.580;5.170;2023-05-14T03:49:06;11.50;99.90
47382;DHT22;33128;51.580;5.170;2023-05-14T03:51:32;11.70;99.90
47382;DHT22;33128;51.580;5.170;2023-05-14T03:53:58;11.60;99.90
47382;DHT22;33128;51.580;5.170;2023-05-14T03:56:24;11.50;99.90
47382;DHT22;33128;51.580;5.170;2023-05-14T03:58:51;11.60;99.90
47382;DHT22;33128;51.580;5.170;2023-05-14T04:01:16;11.50;99.90
47382;DHT22;33128;51.580;5.170;2023-05-14T04:03:42;11.50;99.90
47382;DHT22;33128;51.580;5.170;2023-05-14T04:06:10;11.40;99.90
47382;DHT22;33128;51.580;5.170;2023-05-14T04:08:37;11.40;99.90
47382;DHT22;33128;51.580;5.170;2023-05-14T04:11:03;11.40;99.90
47382;DHT22;33128;51.580;5.170;2023-05-14T04:13:29;11.50;99.90
47382;DHT22;33128;51.580;5.170;2023-05-14T04:15:54;11.50;99.90
47382;DHT22;33128;51.580;5.170;2023-05-14T04:18:20;11.40;99.90
47382;DHT22;33128;51.580;5.170;2023-05-14T04:20:45;11.40;99.90
47382;DHT22;33128;51.580;5.170;2023-05-14T04:23:11;11.40;99.90
47382;DHT22;33128;51.580;5.170;2023-05-14T04:25:36;11.50;99.90
47382;DHT22;33128;51.580;5.170;2023-05-14T04:28:02;11.50;99.90
47382;DHT22;33128;51.580;5.170;2023-05-14T04:30:28;11.30;99.90
47382;DHT22;33128;51.580;5.170;2023-05-14T04:32:54;11.30;99.90
47382;DHT22;33128;51.580;5.170;2023-05-14T04:35:20;11.50;99.90
47382;DHT22;33128;51.580;5.170;2023-05-14T04:37:46;11.70;99.90
47382;DHT22;33128;51.580;5.170;2023-05-14T04:40:11;11.70;99.90
47382;DHT22;33128;51.580;5.170;2023-05-14T04:42:37;11.60;99.90
47382;DHT22;33128;51.580;5.170;2023-05-14T04:45:05;11.90;99.90
47382;DHT22;33128;51.580;5.170;2023-05-14T04:47:31;11.50;99.90
47382;DHT22;33128;51.580;5.170;2023-05-14T04:49:56;11.50;99.90
47382;DHT22;33128;51.580;5.170;2023-05-14T04:52:23;11.60;99.90
47382;DHT22;33128;51.580;5.170;2023-05-14T04:54:48;11.60;99.90
47382;DHT22;33128;51.580;5.170;2023-05-14T04:57:14;11.70;99.90
47382;DHT22;33128;51.580;5.170;2023-05-14T04:59:43;11.70;99.90
47382;DHT22;33128;51.580;5.170;2023-05-14T05:02:08;11.70;99.90
47382;DHT22;33128;51.580;5.170;2023-05-14T05:04:34;11.80;99.90
47382;DHT22;33128;51.580;5.170;2023-05-14T05:07:02;12.20;99.90
47382;DHT22;33128;51.580;5.170;2023-05-14T05:09:28;11.90;99.90
47382;DHT22;33128;51.580;5.170;2023-05-14T05:11:53;12.00;99.90
47382;DHT22;33128;51.580;5.170;2023-05-14T05:14:19;12.00;99.90
47382;DHT22;33128;51.580;5.170;2023-05-14T05:16:44;12.10;99.90
47382;DHT22;33128;51.580;5.170;2023-05-14T05:19:10;12.20;99.90
47382;DHT22;33128;51.580;5.170;2023-05-14T05:21:36;12.20;99.90
47382;DHT22;33128;51.580;5.170;2023-05-14T05:24:03;12.20;99.90
47382;DHT22;33128;51.580;5.170;2023-05-14T05:26:29;12.20;99.90
47382;DHT22;33128;51.580;5.170;2023-05-14T05:28:59;12.20;99.90
47382;DHT22;33128;51.580;5.170;2023-05-14T05:31:28;12.30;99.90
47382;DHT22;33128;51.580;5.170;2023-05-14T05:33:53;12.30;99.90
47382;DHT22;33128;51.580;5.170;2023-05-14T05:36:19;12.40;99.90
47382;DHT22;33128;51.580;5.170;2023-05-14T05:38:44;12.50;99.90
47382;DHT22;33128;51.580;5.170;2023-05-14T05:41:10;12.50;99.90
47382;DHT22;33128;51.580;5.170;2023-05-14T05:43:38;12.40;99.90
47382;DHT22;33128;51.580;5.170;2023-05-14T05:46:04;12.70;99.90
47382;DHT22;33128;51.580;5.170;2023-05-14T05:48:29;12.80;99.90
47382;DHT22;33128;51.580;5.170;2023-05-14T05:50:55;12.80;99.90
47382;DHT22;33128;51.580;5.170;2023-05-14T05:53:21;12.80;99.90
47382;DHT22;33128;51.580;5.170;2023-05-14T05:55:46;12.90;99.90
47382;DHT22;33128;51.580;5.170;2023-05-14T05:58:12;13.10;99.90
47382;DHT22;33128;51.580;5.170;2023-05-14T06:00:41;13.00;99.90
47382;DHT22;33128;51.580;5.170;2023-05-14T06:03:07;13.00;99.90
47382;DHT22;33128;51.580;5.170;2023-05-14T06:05:32;13.00;99.90
47382;DHT22;33128;51.580;5.170;2023-05-14T06:07:58;13.00;99.90
47382;DHT22;33128;51.580;5.170;2023-05-14T06:10:24;13.00;99.90
47382;DHT22;33128;51.580;5.170;2023-05-14T06:12:49;13.30;99.90
47382;DHT22;33128;51.580;5.170;2023-05-14T06:15:15;13.90;99.90
47382;DHT22;33128;51.580;5.170;2023-05-14T06:17:40;14.20;99.90
47382;DHT22;33128;51.580;5.170;2023-05-14T06:20:09;14.60;99.90
47382;DHT22;33128;51.580;5.170;2023-05-14T06:22:35;14.80;99.90
47382;DHT22;33128;51.580;5.170;2023-05-14T06:25:02;14.70;99.90
47382;DHT22;33128;51.580;5.170;2023-05-14T06:27:27;15.10;99.90
47382;DHT22;33128;51.580;5.170;2023-05-14T06:29:53;15.00;99.90
47382;DHT22;33128;51.580;5.170;2023-05-14T06:32:19;15.10;99.90
47382;DHT22;33128;51.580;5.170;2023-05-14T06:34:44;15.40;99.90
47382;DHT22;33128;51.580;5.170;2023-05-14T06:37:10;15.10;99.90
47382;DHT22;33128;51.580;5.170;2023-05-14T06:39:36;14.90;99.90
47382;DHT22;33128;51.580;5.170;2023-05-14T06:42:01;14.80;99.90
47382;DHT22;33128;51.580;5.170;2023-05-14T06:44:27;14.70;99.90
47382;DHT22;33128;51.580;5.170;2023-05-14T06:46:53;14.90;99.90
47382;DHT22;33128;51.580;5.170;2023-05-14T06:49:18;15.10;99.90
47382;DHT22;33128;51.580;5.170;2023-05-14T06:51:44;15.30;99.90
47382;DHT22;33128;51.580;5.170;2023-05-14T06:54:10;15.40;99.90
47382;DHT22;33128;51.580;5.170;2023-05-14T06:56:36;15.50;99.90
47382;DHT22;33128;51.580;5.170;2023-05-14T06:59:01;15.50;99.90
47382;DHT22;33128;51.580;5.170;2023-05-14T07:01:27;15.80;99.90
47382;DHT22;33128;51.580;5.170;2023-05-14T07:03:52;16.10;99.90
47382;DHT22;33128;51.580;5.170;2023-05-14T07:06:18;15.80;99.90
47382;DHT22;33128;51.580;5.170;2023-05-14T07:08:43;15.70;99.90
47382;DHT22;33128;51.580;5.170;2023-05-14T07:11:12;15.90;99.90
47382;DHT22;33128;51.580;5.170;2023-05-14T07:13:38;15.80;99.90
47382;DHT22;33128;51.580;5.170;2023-05-14T07:16:04;15.90;99.90
47382;DHT22;33128;51.580;5.170;2023-05-14T07:18:30;16.20;99.90
47382;DHT22;33128;51.580;5.170;2023-05-14T07:20:56;15.90;99.90
47382;DHT22;33128;51.580;5.170;2023-05-14T07:23:21;16.10;99.90
47382;DHT22;33128;51.580;5.170;2023-05-14T07:25:47;16.50;99.90
47382;DHT22;33128;51.580;5.170;2023-05-14T07:28:12;16.70;99.90
47382;DHT22;33128;51.580;5.170;2023-05-14T07:30:38;16.90;99.90
47382;DHT22;33128;51.580;5.170;2023-05-14T07:33:03;17.00;99.90
47382;DHT22;33128;51.580;5.170;2023-05-14T07:35:29;17.20;99.90
47382;DHT22;33128;51.580;5.170;2023-05-14T07:37:55;17.60;99.90
47382;DHT22;33128;51.580;5.170;2023-05-14T07:40:20;17.00;99.90
47382;DHT22;33128;51.580;5.170;2023-05-14T07:42:46;17.50;99.90
47382;DHT22;33128;51.580;5.170;2023-05-14T07:45:12;17.70;99.90
47382;DHT22;33128;51.580;5.170;2023-05-14T07:47:38;17.90;99.90
47382;DHT22;33128;51.580;5.170;2023-05-14T07:50:05;17.30;99.90
47382;DHT22;33128;51.580;5.170;2023-05-14T07:52:31;17.00;99.90
47382;DHT22;33128;51.580;5.170;2023-05-14T07:54:56;17.10;99.90
47382;DHT22;33128;51.580;5.170;2023-05-14T07:57:22;17.40;99.90
47382;DHT22;33128;51.580;5.170;2023-05-14T07:59:48;17.50;99.90
47382;DHT22;33128;51.580;5.170;2023-05-14T08:02:13;17.60;99.90
47382;DHT22;33128;51.580;5.170;2023-05-14T08:04:40;17.40;99.90
47382;DHT22;33128;51.580;5.170;2023-05-14T08:07:06;17.10;99.90
47382;DHT22;33128;51.580;5.170;2023-05-14T08:09:33;16.90;99.90
47382;DHT22;33128;51.580;5.170;2023-05-14T08:11:58;17.10;99.90
47382;DHT22;33128;51.580;5.170;2023-05-14T08:14:24;16.90;99.90
47382;DHT22;33128;51.580;5.170;2023-05-14T08:16:50;16.80;99.90
47382;DHT22;33128;51.580;5.170;2023-05-14T08:19:15;17.00;99.90
47382;DHT22;33128;51.580;5.170;2023-05-14T08:21:41;17.20;99.90
47382;DHT22;33128;51.580;5.170;2023-05-14T08:24:06;17.50;99.90
47382;DHT22;33128;51.580;5.170;2023-05-14T08:26:32;18.00;99.90
47382;DHT22;33128;51.580;5.170;2023-05-14T08:28:58;18.10;99.90
47382;DHT22;33128;51.580;5.170;2023-05-14T08:31:23;18.40;99.90
47382;DHT22;33128;51.580;5.170;2023-05-14T08:33:49;18.40;99.90
47382;DHT22;33128;51.580;5.170;2023-05-14T08:36:15;18.30;99.90
47382;DHT22;33128;51.580;5.170;2023-05-14T08:38:40;18.10;99.90
47382;DHT22;33128;51.580;5.170;2023-05-14T08:41:07;18.20;99.90
47382;DHT22;33128;51.580;5.170;2023-05-14T08:46:23;18.40;99.90
47382;DHT22;33128;51.580;5.170;2023-05-14T08:49:20;18.40;99.90
47382;DHT22;33128;51.580;5.170;2023-05-14T08:51:47;18.40;99.90
47382;DHT22;33128;51.580;5.170;2023-05-14T08:54:16;18.60;99.90
47382;DHT22;33128;51.580;5.170;2023-05-14T08:56:45;18.30;99.90
47382;DHT22;33128;51.580;5.170;2023-05-14T08:59:11;18.00;99.90
47382;DHT22;33128;51.580;5.170;2023-05-14T09:01:37;17.70;99.90
47382;DHT22;33128;51.580;5.170;2023-05-14T09:04:07;18.10;99.90
47382;DHT22;33128;51.580;5.170;2023-05-14T09:06:35;18.20;99.90
47382;DHT22;33128;51.580;5.170;2023-05-14T09:09:04;18.30;99.90
47382;DHT22;33128;51.580;5.170;2023-05-14T09:11:30;18.30;99.90
47382;DHT22;33128;51.580;5.170;2023-05-14T09:13:55;18.60;99.90
47382;DHT22;33128;51.580;5.170;2023-05-14T09:16:22;18.50;99.90
47382;DHT22;33128;51.580;5.170;2023-05-14T09:18:48;18.50;99.90
47382;DHT22;33128;51.580;5.170;2023-05-14T09:21:14;17.80;99.90
47382;DHT22;33128;51.580;5.170;2023-05-14T09:23:43;18.10;99.90
47382;DHT22;33128;51.580;5.170;2023-05-14T09:26:10;18.40;99.90
47382;DHT22;33128;51.580;5.170;2023-05-14T09:28:39;18.60;99.90
47382;DHT22;33128;51.580;5.170;2023-05-14T09:31:07;18.50;99.90
47382;DHT22;33128;51.580;5.170;2023-05-14T09:33:33;18.20;99.90
47382;DHT22;33128;51.580;5.170;2023-05-14T09:35:59;18.40;99.90
47382;DHT22;33128;51.580;5.170;2023-05-14T09:38:32;18.50;99.90
47382;DHT22;33128;51.580;5.170;2023-05-14T09:40:58;18.80;99.90
47382;DHT22;33128;51.580;5.170;2023-05-14T09:43:24;19.00;99.90
47382;DHT22;33128;51.580;5.170;2023-05-14T09:45:53;19.00;99.90
47382;DHT22;33128;51.580;5.170;2023-05-14T09:48:19;19.10;99.90
47382;DHT22;33128;51.580;5.170;2023-05-14T09:50:47;19.10;99.90
47382;DHT22;33128;51.580;5.170;2023-05-14T09:53:13;19.00;99.90
47382;DHT22;33128;51.580;5.170;2023-05-14T09:55:39;19.20;99.90
47382;DHT22;33128;51.580;5.170;2023-05-14T09:58:05;19.20;99.90
47382;DHT22;33128;51.580;5.170;2023-05-14T10:00:31;19.50;99.90
47382;DHT22;33128;51.580;5.170;2023-05-14T10:02:58;19.80;99.90
47382;DHT22;33128;51.580;5.170;2023-05-14T10:05:27;19.40;99.90
47382;DHT22;33128;51.580;5.170;2023-05-14T10:07:54;19.40;99.90
47382;DHT22;33128;51.580;5.170;2023-05-14T10:10:23;19.50;99.90
47382;DHT22;33128;51.580;5.170;2023-05-14T10:12:56;19.20;99.90
47382;DHT22;33128;51.580;5.170;2023-05-14T10:15:31;19.30;99.90
47382;DHT22;33128;51.580;5.170;2023-05-14T10:18:03;19.80;99.90
47382;DHT22;33128;51.580;5.170;2023-05-14T10:20:31;19.80;99.90
47382;DHT22;33128;51.580;5.170;2023-05-14T10:22:57;19.90;99.90
47382;DHT22;33128;51.580;5.170;2023-05-14T10:25:23;19.90;99.90
47382;DHT22;33128;51.580;5.170;2023-05-14T10:27:49;20.00;99.90
47382;DHT22;33128;51.580;5.170;2023-05-14T10:30:14;20.20;99.90
47382;DHT22;33128;51.580;5.170;2023-05-14T10:32:40;20.20;99.90
47382;DHT22;33128;51.580;5.170;2023-05-14T10:35:17;20.10;99.90
47382;DHT22;33128;51.580;5.170;2023-05-14T10:37:44;20.20;99.90
47382;DHT22;33128;51.580;5.170;2023-05-14T10:40:11;20.40;99.90
47382;DHT22;33128;51.580;5.170;2023-05-14T10:42:38;20.40;99.90
47382;DHT22;33128;51.580;5.170;2023-05-14T10:45:13;20.50;99.90
47382;DHT22;33128;51.580;5.170;2023-05-14T10:47:41;20.30;99.90
47382;DHT22;33128;51.580;5.170;2023-05-14T10:50:11;20.50;99.90
47382;DHT22;33128;51.580;5.170;2023-05-14T10:52:43;20.60;99.90
47382;DHT22;33128;51.580;5.170;2023-05-14T10:55:12;20.60;99.90
47382;DHT22;33128;51.580;5.170;2023-05-14T10:57:39;20.70;99.90
47382;DHT22;33128;51.580;5.170;2023-05-14T11:00:10;20.60;99.90
47382;DHT22;33128;51.580;5.170;2023-05-14T11:02:38;20.70;99.90
47382;DHT22;33128;51.580;5.170;2023-05-14T11:05:06;21.00;99.90
47382;DHT22;33128;51.580;5.170;2023-05-14T11:10:09;21.40;99.90
47382;DHT22;33128;51.580;5.170;2023-05-14T11:12:40;21.30;99.90
47382;DHT22;33128;51.580;5.170;2023-05-14T11:15:08;21.70;99.90
47382;DHT22;33128;51.580;5.170;2023-05-14T11:17:34;21.80;99.90
47382;DHT22;33128;51.580;5.170;2023-05-14T11:20:01;22.00;99.90
47382;DHT22;33128;51.580;5.170;2023-05-14T11:22:26;22.30;99.90
47382;DHT22;33128;51.580;5.170;2023-05-14T11:24:52;22.20;99.90
47382;DHT22;33128;51.580;5.170;2023-05-14T11:27:20;22.40;99.90
47382;DHT22;33128;51.580;5.170;2023-05-14T11:29:46;22.60;99.90
47382;DHT22;33128;51.580;5.170;2023-05-14T11:32:13;23.10;99.90
47382;DHT22;33128;51.580;5.170;2023-05-14T11:34:39;23.40;99.90
47382;DHT22;33128;51.580;5.170;2023-05-14T11:37:06;24.20;99.90
47382;DHT22;33128;51.580;5.170;2023-05-14T11:39:33;25.10;99.90
47382;DHT22;33128;51.580;5.170;2023-05-14T11:42:12;27.00;99.90
47382;DHT22;33128;51.580;5.170;2023-05-14T11:44:39;27.60;99.90
47382;DHT22;33128;51.580;5.170;2023-05-14T11:47:05;27.90;99.90
47382;DHT22;33128;51.580;5.170;2023-05-14T11:49:31;28.20;99.80
47382;DHT22;33128;51.580;5.170;2023-05-14T11:52:05;29.50;97.00
47382;DHT22;33128;51.580;5.170;2023-05-14T11:54:32;29.90;96.80
47382;DHT22;33128;51.580;5.170;2023-05-14T11:57:00;31.00;94.00
47382;DHT22;33128;51.580;5.170;2023-05-14T11:59:27;30.80;92.90
47382;DHT22;33128;51.580;5.170;2023-05-14T12:01:53;30.80;92.90
47382;DHT22;33128;51.580;5.170;2023-05-14T12:06:51;31.40;99.90
47382;DHT22;33128;51.580;5.170;2023-05-14T12:09:18;31.00;99.90
47382;DHT22;33128;51.580;5.170;2023-05-14T12:11:44;32.20;99.40
47382;DHT22;33128;51.580;5.170;2023-05-14T12:14:18;32.60;98.90
47382;DHT22;33128;51.580;5.170;2023-05-14T12:16:45;30.30;99.50
47382;DHT22;33128;51.580;5.170;2023-05-14T12:19:16;30.70;99.90
47382;DHT22;33128;51.580;5.170;2023-05-14T12:21:43;31.20;97.10
47382;DHT22;33128;51.580;5.170;2023-05-14T12:24:14;31.60;95.50
47382;DHT22;33128;51.580;5.170;2023-05-14T12:26:44;29.80;95.30
47382;DHT22;33128;51.580;5.170;2023-05-14T12:29:12;27.90;97.50
47382;DHT22;33128;51.580;5.170;2023-05-14T12:31:38;29.70;98.90
47382;DHT22;33128;51.580;5.170;2023-05-14T12:34:08;31.70;98.70
47382;DHT22;33128;51.580;5.170;2023-05-14T12:36:35;29.90;98.30
47382;DHT22;33128;51.580;5.170;2023-05-14T12:39:01;29.50;99.30
47382;DHT22;33128;51.580;5.170;2023-05-14T12:41:31;30.80;98.70
47382;DHT22;33128;51.580;5.170;2023-05-14T12:43:57;30.30;98.30
47382;DHT22;33128;51.580;5.170;2023-05-14T12:46:25;30.80;98.10
47382;DHT22;33128;51.580;5.170;2023-05-14T12:48:51;29.50;97.60
47382;DHT22;33128;51.580;5.170;2023-05-14T12:51:23;30.20;98.40
47382;DHT22;33128;51.580;5.170;2023-05-14T12:53:48;31.10;97.70
47382;DHT22;33128;51.580;5.170;2023-05-14T12:56:16;30.60;97.50
47382;DHT22;33128;51.580;5.170;2023-05-14T12:58:44;30.30;97.60
47382;DHT22;33128;51.580;5.170;2023-05-14T13:01:11;30.60;97.80
47382;DHT22;33128;51.580;5.170;2023-05-14T13:03:37;31.10;97.50
47382;DHT22;33128;51.580;5.170;2023-05-14T13:06:02;31.00;97.40
47382;DHT22;33128;51.580;5.170;2023-05-14T13:08:28;30.70;97.90
47382;DHT22;33128;51.580;5.170;2023-05-14T13:10:55;29.50;98.10
47382;DHT22;33128;51.580;5.170;2023-05-14T13:13:21;28.30;98.50
47382;DHT22;33128;51.580;5.170;2023-05-14T13:15:47;28.80;98.50
47382;DHT22;33128;51.580;5.170;2023-05-14T13:18:14;29.20;97.50
47382;DHT22;33128;51.580;5.170;2023-05-14T13:20:39;28.10;97.90
47382;DHT22;33128;51.580;5.170;2023-05-14T13:23:05;28.90;97.90
47382;DHT22;33128;51.580;5.170;2023-05-14T13:25:31;28.80;98.20
47382;DHT22;33128;51.580;5.170;2023-05-14T13:27:57;28.60;97.40
47382;DHT22;33128;51.580;5.170;2023-05-14T13:30:22;28.60;98.40
47382;DHT22;33128;51.580;5.170;2023-05-14T13:32:48;28.20;99.70
47382;DHT22;33128;51.580;5.170;2023-05-14T13:35:13;27.50;99.90
47382;DHT22;33128;51.580;5.170;2023-05-14T13:37:39;27.00;99.90
47382;DHT22;33128;51.580;5.170;2023-05-14T13:40:05;26.80;99.90
47382;DHT22;33128;51.580;5.170;2023-05-14T13:42:37;26.40;99.90
47382;DHT22;33128;51.580;5.170;2023-05-14T13:45:04;26.10;99.90
47382;DHT22;33128;51.580;5.170;2023-05-14T13:47:30;26.20;99.90
47382;DHT22;33128;51.580;5.170;2023-05-14T13:49:57;26.00;97.30
47382;DHT22;33128;51.580;5.170;2023-05-14T13:52:22;25.60;97.50
47382;DHT22;33128;51.580;5.170;2023-05-14T13:54:48;25.80;97.50
47382;DHT22;33128;51.580;5.170;2023-05-14T13:57:14;25.70;97.50
47382;DHT22;33128;51.580;5.170;2023-05-14T13:59:40;25.40;97.50
47382;DHT22;33128;51.580;5.170;2023-05-14T14:02:06;25.30;97.60
47382;DHT22;33128;51.580;5.170;2023-05-14T14:04:32;25.40;98.20
47382;DHT22;33128;51.580;5.170;2023-05-14T14:07:00;25.40;98.30
47382;DHT22;33128;51.580;5.170;2023-05-14T14:09:26;25.40;98.20
47382;DHT22;33128;51.580;5.170;2023-05-14T14:11:51;25.40;98.80
47382;DHT22;33128;51.580;5.170;2023-05-14T14:14:17;25.30;98.90
47382;DHT22;33128;51.580;5.170;2023-05-14T14:16:43;25.50;99.00
47382;DHT22;33128;51.580;5.170;2023-05-14T14:19:11;25.40;98.90
47382;DHT22;33128;51.580;5.170;2023-05-14T14:21:37;25.10;98.70
47382;DHT22;33128;51.580;5.170;2023-05-14T14:24:04;25.40;98.80
47382;DHT22;33128;51.580;5.170;2023-05-14T14:26:30;25.40;99.00
47382;DHT22;33128;51.580;5.170;2023-05-14T14:28:56;25.00;99.00
47382;DHT22;33128;51.580;5.170;2023-05-14T14:31:21;25.00;99.30
47382;DHT22;33128;51.580;5.170;2023-05-14T14:33:47;25.00;99.40
47382;DHT22;33128;51.580;5.170;2023-05-14T14:36:13;24.80;99.80
47382;DHT22;33128;51.580;5.170;2023-05-14T14:38:38;24.80;99.40
47382;DHT22;33128;51.580;5.170;2023-05-14T14:41:04;24.70;99.50
47382;DHT22;33128;51.580;5.170;2023-05-14T14:43:34;24.90;99.90
47382;DHT22;33128;51.580;5.170;2023-05-14T14:46:00;25.00;99.90
47382;DHT22;33128;51.580;5.170;2023-05-14T14:48:27;24.80;99.90
47382;DHT22;33128;51.580;5.170;2023-05-14T14:50:56;24.80;99.30
47382;DHT22;33128;51.580;5.170;2023-05-14T14:53:23;24.80;99.80
47382;DHT22;33128;51.580;5.170;2023-05-14T14:55:49;24.90;99.60
47382;DHT22;33128;51.580;5.170;2023-05-14T14:58:16;24.70;99.20
47382;DHT22;33128;51.580;5.170;2023-05-14T15:00:42;25.00;99.10
47382;DHT22;33128;51.580;5.170;2023-05-14T15:03:10;24.70;99.00
47382;DHT22;33128;51.580;5.170;2023-05-14T15:05:36;24.70;98.90
47382;DHT22;33128;51.580;5.170;2023-05-14T15:08:02;24.80;99.00
47382;DHT22;33128;51.580;5.170;2023-05-14T15:10:29;24.80;99.10
47382;DHT22;33128;51.580;5.170;2023-05-14T15:12:58;24.90;99.40
47382;DHT22;33128;51.580;5.170;2023-05-14T15:15:25;24.80;99.50
47382;DHT22;33128;51.580;5.170;2023-05-14T15:17:50;24.70;99.90
47382;DHT22;33128;51.580;5.170;2023-05-14T15:20:16;24.60;99.70
47382;DHT22;33128;51.580;5.170;2023-05-14T15:22:43;24.80;99.60
47382;DHT22;33128;51.580;5.170;2023-05-14T15:25:09;24.70;99.60
47382;DHT22;33128;51.580;5.170;2023-05-14T15:27:35;24.70;99.20
47382;DHT22;33128;51.580;5.170;2023-05-14T15:30:02;24.90;99.20
47382;DHT22;33128;51.580;5.170;2023-05-14T15:32:28;24.90;99.60
47382;DHT22;33128;51.580;5.170;2023-05-14T15:34:54;24.60;99.90
47382;DHT22;33128;51.580;5.170;2023-05-14T15:37:22;24.90;99.90
47382;DHT22;33128;51.580;5.170;2023-05-14T15:39:47;24.50;99.00